Baltimore, Maryland
Traffic Map
Current Weather Conditions
Baltimore, Maryland
Broken Clouds
Broken Clouds
12°
Feels Like: 12°
Wind Chill: 12° Ceiling: 25000
Heat Index: 12° Visibility: 10mi
Dew Point: Wind: 14mph
Humidity: 48% Direction: 80° (E)
Pressure: 30.45in Gusts: 18mph
Raw Report DataKBWI 201554Z 08012G16KT 10SM BKN250 12/01 A3045 RMK AO2 SLP310 T01170011
Traffic Incident Summary
Active as of:
Severity:
Category:
InformationThere was an issue retrieving the traffic information for this location. Please try a different location or try again shortly.
Advertisements
At Last! Intellicast now available for iPhone and Android